createdAt,value
2018-02-22T00:01:00.157Z,98144.31
2018-02-22T00:03:27.808Z,98138.25
2018-02-22T00:05:55.350Z,98142.13
2018-02-22T00:08:23.022Z,98140.33
2018-02-22T00:10:51.336Z,98140.69
2018-02-22T00:13:19.115Z,98136.23
2018-02-22T00:15:46.928Z,98141.37
2018-02-22T00:18:14.920Z,98135.52
2018-02-22T00:20:42.611Z,98132.05
2018-02-22T00:23:10.424Z,98125.54
2018-02-22T00:25:38.061Z,98127.09
2018-02-22T00:28:05.646Z,98123.16
2018-02-22T00:30:33.441Z,98122.00
2018-02-22T00:33:01.170Z,98126.97
2018-02-22T00:35:28.990Z,98112.97
2018-02-22T00:37:56.676Z,98114.83
2018-02-22T00:40:24.845Z,98115.07
2018-02-22T00:42:52.454Z,98115.17
2018-02-22T00:45:20.334Z,98102.14
2018-02-22T00:47:48.074Z,98108.28
2018-02-22T00:50:15.660Z,98109.75
2018-02-22T00:52:43.229Z,98101.44
2018-02-22T00:55:10.801Z,98108.52
2018-02-22T00:57:38.356Z,98110.06
2018-02-22T01:00:05.931Z,98109.84
2018-02-22T01:02:33.539Z,98109.16
2018-02-22T01:05:01.094Z,98105.74
2018-02-22T01:07:28.701Z,98097.66
2018-02-22T01:09:57.440Z,98094.52
2018-02-22T01:12:25.088Z,98096.16
2018-02-22T01:14:52.603Z,98095.70
2018-02-22T01:17:20.265Z,98095.51
2018-02-22T01:19:47.979Z,98095.52
2018-02-22T01:22:15.638Z,98102.50
2018-02-22T01:24:43.444Z,98104.23
2018-02-22T01:27:11.192Z,98094.59
2018-02-22T01:29:38.853Z,98096.96
2018-02-22T01:32:06.462Z,98093.34
2018-02-22T01:34:34.155Z,98095.27
2018-02-22T01:37:01.799Z,98096.31
2018-02-22T01:39:29.509Z,98091.95
2018-02-22T01:41:57.480Z,98095.02
2018-02-22T01:44:25.061Z,98086.02
2018-02-22T01:46:52.701Z,98084.08
2018-02-22T01:49:20.297Z,98084.66
2018-02-22T01:51:48.126Z,98084.89
2018-02-22T01:54:15.768Z,98079.27
2018-02-22T01:56:43.324Z,98078.13
2018-02-22T01:59:10.985Z,98076.98
2018-02-22T02:01:38.904Z,98078.71
2018-02-22T02:04:06.456Z,98075.77
2018-02-22T02:06:34.198Z,98080.23
2018-02-22T02:09:01.950Z,98075.27
2018-02-22T02:11:29.927Z,98074.34
2018-02-22T02:13:57.476Z,98074.45
2018-02-22T02:16:26.032Z,98076.08
2018-02-22T02:18:53.593Z,98075.05
2018-02-22T02:21:22.536Z,98068.41
2018-02-22T02:23:50.194Z,98068.22
2018-02-22T02:26:17.734Z,98075.83
2018-02-22T02:28:45.520Z,98072.30
2018-02-22T02:31:13.086Z,98065.56
2018-02-22T02:33:41.235Z,98073.41
2018-02-22T02:36:08.836Z,98071.14
2018-02-22T02:38:36.492Z,98061.51
2018-02-22T02:41:04.449Z,98057.23
2018-02-22T02:43:32.281Z,98054.15
2018-02-22T02:46:00.112Z,98053.23
2018-02-22T02:48:27.661Z,98049.87
2018-02-22T02:50:55.332Z,98046.41
2018-02-22T02:53:22.935Z,98039.45
2018-02-22T02:55:50.526Z,98041.96
2018-02-22T02:58:18.335Z,98043.69
2018-02-22T03:00:46.149Z,98041.66
2018-02-22T03:03:14.037Z,98040.47
2018-02-22T03:05:41.697Z,98039.99
2018-02-22T03:08:09.506Z,98044.17
2018-02-22T03:10:37.162Z,98035.27
2018-02-22T03:13:05.506Z,98038.17
2018-02-22T03:15:33.221Z,98034.02
2018-02-22T03:18:01.096Z,98037.63
2018-02-22T03:20:28.804Z,98037.31
2018-02-22T03:22:56.534Z,98036.41
2018-02-22T03:25:24.081Z,98025.30
2018-02-22T03:27:51.852Z,98030.19
2018-02-22T03:30:19.510Z,98031.70
2018-02-22T03:32:47.213Z,98033.69
2018-02-22T03:35:15.799Z,98031.27
2018-02-22T03:37:43.928Z,98033.25
2018-02-22T03:40:11.548Z,98027.72
2018-02-22T03:42:39.159Z,98027.78
2018-02-22T03:45:07.819Z,98027.71
2018-02-22T03:47:35.741Z,98023.56
2018-02-22T03:50:03.515Z,98026.80
2018-02-22T03:52:31.250Z,98023.30
2018-02-22T03:54:58.912Z,98024.78
2018-02-22T03:57:26.608Z,98031.17
2018-02-22T03:59:54.270Z,98024.98
2018-02-22T04:02:22.027Z,98028.96
2018-02-22T04:04:49.691Z,98022.19
2018-02-22T04:07:17.886Z,98030.02
2018-02-22T04:09:45.534Z,98023.97
2018-02-22T04:12:13.091Z,98027.09
2018-02-22T04:14:40.794Z,98032.54
2018-02-22T04:17:08.335Z,98031.14
2018-02-22T04:19:36.016Z,98031.05
2018-02-22T04:22:03.694Z,98026.46
2018-02-22T04:24:31.315Z,98031.48
2018-02-22T04:26:58.928Z,98030.20
2018-02-22T04:29:26.523Z,98030.92
2018-02-22T04:31:54.200Z,98027.55
2018-02-22T04:34:21.895Z,98033.06
2018-02-22T04:36:49.451Z,98032.52
2018-02-22T04:39:17.060Z,98028.64
2018-02-22T04:41:44.771Z,98037.80
2018-02-22T04:44:12.532Z,98030.39
2018-02-22T04:46:40.256Z,98033.03
2018-02-22T04:49:07.814Z,98031.67
2018-02-22T04:51:36.337Z,98037.55
2018-02-22T04:54:03.983Z,98041.05
2018-02-22T04:56:31.555Z,98037.08
2018-02-22T04:58:59.279Z,98031.62
2018-02-22T05:01:26.917Z,98034.77
2018-02-22T05:03:54.465Z,98026.19
2018-02-22T05:06:22.007Z,98034.94
2018-02-22T05:08:49.624Z,98035.34
2018-02-22T05:11:17.720Z,98037.34
2018-02-22T05:13:45.263Z,98039.98
2018-02-22T05:16:13.216Z,98040.73
2018-02-22T05:18:40.827Z,98035.06
2018-02-22T05:21:08.940Z,98034.21
2018-02-22T05:23:36.614Z,98035.48
2018-02-22T05:26:04.439Z,98029.06
2018-02-22T05:28:32.004Z,98031.38
2018-02-22T05:30:59.801Z,98026.99
2018-02-22T05:33:27.639Z,98028.03
2018-02-22T05:35:55.190Z,98020.47
2018-02-22T05:38:22.854Z,98025.19
2018-02-22T05:40:50.434Z,98024.17
2018-02-22T05:43:18.626Z,98025.59
2018-02-22T05:45:46.180Z,98022.41
2018-02-22T05:48:14.816Z,98022.58
2018-02-22T05:50:42.431Z,98025.27
2018-02-22T05:53:10.054Z,98030.33
2018-02-22T05:55:37.702Z,98022.17
2018-02-22T05:58:05.501Z,98035.36
2018-02-22T06:00:33.203Z,98027.75
2018-02-22T06:03:00.745Z,98026.75
2018-02-22T06:05:29.624Z,98031.62
2018-02-22T06:07:57.312Z,98031.45
2018-02-22T06:10:24.977Z,98034.23
2018-02-22T06:12:53.435Z,98030.52
2018-02-22T06:15:21.054Z,98028.16
2018-02-22T06:17:48.600Z,98031.78
2018-02-22T06:20:16.226Z,98021.80
2018-02-22T06:22:44.040Z,98022.89
2018-02-22T06:25:11.572Z,98024.06
2018-02-22T06:27:39.119Z,98021.74
2018-02-22T06:30:06.965Z,98026.77
2018-02-22T06:32:34.709Z,98032.05
2018-02-22T06:35:02.353Z,98035.39
2018-02-22T06:37:29.914Z,98031.96
2018-02-22T06:39:57.652Z,98032.55
2018-02-22T06:42:25.351Z,98033.93
2018-02-22T06:44:53.128Z,98036.76
2018-02-22T06:47:20.705Z,98037.31
2018-02-22T06:49:48.405Z,98038.66
2018-02-22T06:52:16.010Z,98047.09
2018-02-22T06:54:43.721Z,98036.95
2018-02-22T06:57:11.796Z,98040.20
2018-02-22T06:59:40.205Z,98042.69
2018-02-22T07:02:07.826Z,98046.75
2018-02-22T07:04:35.901Z,98038.91
2018-02-22T07:07:04.755Z,98048.31
2018-02-22T07:09:32.436Z,98042.37
2018-02-22T07:12:00.261Z,98031.28
2018-02-22T07:14:27.889Z,98034.73
2018-02-22T07:16:55.866Z,98031.47
2018-02-22T07:19:23.794Z,98027.94
2018-02-22T07:21:51.469Z,98037.58
2018-02-22T07:24:19.198Z,98026.11
2018-02-22T07:26:47.792Z,98028.78
2018-02-22T07:29:15.811Z,98033.05
2018-02-22T07:31:43.518Z,98029.67
2018-02-22T07:34:11.197Z,98033.25
2018-02-22T07:36:38.826Z,98042.86
2018-02-22T07:39:06.395Z,98038.36
2018-02-22T07:41:34.111Z,98037.19
2018-02-22T07:44:01.747Z,98040.11
2018-02-22T07:46:29.662Z,98039.91
2018-02-22T07:48:58.576Z,98039.61
2018-02-22T07:51:26.500Z,98040.50
2018-02-22T07:53:54.055Z,98039.76
2018-02-22T07:56:21.819Z,98041.34
2018-02-22T07:58:49.525Z,98035.97
2018-02-22T08:01:17.624Z,98030.16
2018-02-22T08:03:45.545Z,98021.84
2018-02-22T08:06:13.256Z,98032.64
2018-02-22T08:08:40.984Z,98032.19
2018-02-22T08:11:08.577Z,98031.20
2018-02-22T08:13:36.723Z,98020.64
2018-02-22T08:16:04.971Z,98030.70
2018-02-22T08:18:32.719Z,98026.52
2018-02-22T08:21:00.396Z,98026.91
2018-02-22T08:23:29.967Z,98030.98
2018-02-22T08:25:57.995Z,98024.02
2018-02-22T08:28:25.791Z,98032.75
2018-02-22T08:30:53.701Z,98037.72
2018-02-22T08:33:21.327Z,98031.83
2018-02-22T08:35:49.244Z,98021.63
2018-02-22T08:38:16.776Z,98032.33
2018-02-22T08:40:44.446Z,98030.50
2018-02-22T08:43:12.717Z,98028.81
2018-02-22T08:45:40.706Z,98031.28
2018-02-22T08:48:08.460Z,98026.35
2018-02-22T08:50:36.581Z,98024.07
2018-02-22T08:53:04.454Z,98036.20
2018-02-22T08:55:32.240Z,98023.08
2018-02-22T08:57:59.887Z,98023.83
2018-02-22T09:00:27.582Z,98029.21
2018-02-22T09:02:55.191Z,98028.09
2018-02-22T09:05:23.105Z,98031.48
2018-02-22T09:07:51.072Z,98020.39
2018-02-22T09:10:18.620Z,98023.16
2018-02-22T09:12:46.356Z,98026.28
2018-02-22T09:15:14.344Z,98020.70
2018-02-22T09:17:41.975Z,98017.98
2018-02-22T09:20:09.680Z,98021.84
2018-02-22T09:22:37.516Z,98019.16
2018-02-22T09:25:05.181Z,98019.10
2018-02-22T09:27:33.010Z,98010.92
2018-02-22T09:30:01.304Z,98017.50
2018-02-22T09:32:28.936Z,98011.74
2018-02-22T09:34:56.499Z,98015.70
2018-02-22T09:37:24.053Z,98012.94
2018-02-22T09:39:51.792Z,98003.30
2018-02-22T09:42:19.690Z,97997.66
2018-02-22T09:44:47.522Z,97999.80
2018-02-22T09:47:15.825Z,98007.98
2018-02-22T09:49:43.357Z,98000.12
2018-02-22T09:52:11.405Z,98013.83
2018-02-22T09:54:39.320Z,98001.98
2018-02-22T09:57:07.114Z,98001.64
2018-02-22T09:59:34.956Z,97997.28
2018-02-22T10:02:02.995Z,97993.98
2018-02-22T10:04:30.606Z,97991.20
2018-02-22T10:06:58.281Z,97989.97
2018-02-22T10:09:25.915Z,97993.70
2018-02-22T10:11:53.644Z,97993.23
2018-02-22T10:14:21.254Z,97983.00
2018-02-22T10:16:49.460Z,97984.09
2018-02-22T10:19:18.101Z,97983.25
2018-02-22T10:21:45.767Z,97986.30
2018-02-22T10:24:13.789Z,97986.83
2018-02-22T10:26:41.438Z,97981.64
2018-02-22T10:29:09.092Z,97981.92
2018-02-22T10:31:37.108Z,97973.99
2018-02-22T10:34:05.040Z,97983.63
2018-02-22T10:36:32.741Z,97979.63
2018-02-22T10:39:01.018Z,97968.49
2018-02-22T10:41:28.725Z,97983.81
2018-02-22T10:43:56.896Z,97989.83
2018-02-22T10:46:24.526Z,97979.47
2018-02-22T10:48:52.126Z,97976.05
2018-02-22T10:51:20.043Z,97973.04
2018-02-22T10:53:47.840Z,97978.89
2018-02-22T10:56:15.915Z,97979.53
2018-02-22T10:58:43.837Z,97963.55
2018-02-22T11:01:17.147Z,97956.48
2018-02-22T11:03:45.125Z,97952.23
2018-02-22T11:06:12.737Z,97958.96
2018-02-22T11:08:40.651Z,97955.55
2018-02-22T11:11:08.415Z,97950.55
2018-02-22T11:13:36.895Z,97972.50
2018-02-22T11:16:04.436Z,97982.66
2018-02-22T11:18:32.950Z,97961.31
2018-02-22T11:21:00.638Z,97960.01
2018-02-22T11:23:28.726Z,97958.97
2018-02-22T11:25:56.595Z,97952.29
2018-02-22T11:28:24.331Z,97950.86
2018-02-22T11:30:52.966Z,97950.87
2018-02-22T11:33:20.615Z,97947.83
2018-02-22T11:35:49.149Z,97938.74
2018-02-22T11:38:17.453Z,97935.19
2018-02-22T11:40:45.053Z,97939.84
2018-02-22T11:43:12.811Z,97932.92
2018-02-22T11:45:40.572Z,97937.98
2018-02-22T11:48:08.295Z,97937.31
2018-02-22T11:50:35.912Z,97933.68
2018-02-22T11:53:03.771Z,97938.69
2018-02-22T11:55:31.490Z,97920.96
2018-02-22T11:57:59.460Z,97929.41
2018-02-22T12:00:27.619Z,97927.09
2018-02-22T12:02:55.155Z,97921.27
2018-02-22T12:05:22.780Z,97923.81
2018-02-22T12:07:50.725Z,97921.49
2018-02-22T12:10:18.405Z,97913.42
2018-02-22T12:12:46.154Z,97924.16
2018-02-22T12:15:14.831Z,97921.77
2018-02-22T12:17:42.385Z,97917.91
2018-02-22T12:20:10.062Z,97929.16
2018-02-22T12:22:38.546Z,97921.22
2018-02-22T12:25:06.472Z,97920.98
2018-02-22T12:27:34.262Z,97920.02
2018-02-22T12:30:02.038Z,97928.22
2018-02-22T12:32:29.720Z,97918.41
2018-02-22T12:34:58.614Z,97925.16
2018-02-22T12:37:26.986Z,97925.44
2018-02-22T12:39:54.767Z,97920.53
2018-02-22T12:42:22.519Z,97924.14
2018-02-22T12:44:50.261Z,97917.14
2018-02-22T12:47:18.058Z,97913.91
2018-02-22T12:49:45.628Z,97917.69
2018-02-22T12:52:13.441Z,97909.04
2018-02-22T12:54:41.173Z,97909.33
2018-02-22T12:57:09.762Z,97902.34
2018-02-22T12:59:37.580Z,97902.05
2018-02-22T13:02:05.570Z,97893.93
2018-02-22T13:04:33.279Z,97898.46
2018-02-22T13:07:01.121Z,97885.55
2018-02-22T13:09:28.810Z,97893.73
2018-02-22T13:11:56.927Z,97869.81
2018-02-22T13:14:24.886Z,97880.51
2018-02-22T13:16:52.566Z,97888.55
2018-02-22T13:19:20.419Z,97893.38
2018-02-22T13:21:48.041Z,97891.50
2018-02-22T13:24:16.277Z,97878.19
2018-02-22T13:26:43.941Z,97887.80
2018-02-22T13:29:11.594Z,97877.62
2018-02-22T13:31:39.392Z,97880.13
2018-02-22T13:34:19.256Z,97860.66
2018-02-22T13:36:46.920Z,97871.31
2018-02-22T13:39:14.880Z,97889.02
2018-02-22T13:41:42.446Z,97881.67
2018-02-22T13:44:22.540Z,97878.83
2018-02-22T13:46:50.208Z,97882.73
2018-02-22T13:49:29.667Z,97873.66
2018-02-22T13:51:57.340Z,97870.82
2018-02-22T13:54:25.079Z,97859.39
2018-02-22T13:57:04.907Z,97878.33
2018-02-22T13:59:32.477Z,97864.23
2018-02-22T14:02:12.126Z,97866.77
2018-02-22T14:04:39.926Z,97853.52
2018-02-22T14:07:07.571Z,97858.87
2018-02-22T14:09:35.757Z,97867.47
2018-02-22T14:12:03.637Z,97857.10
2018-02-22T14:14:31.525Z,97851.85
2018-02-22T14:16:59.582Z,97862.89
2018-02-22T14:19:27.452Z,97874.69
2018-02-22T14:21:55.277Z,97858.51
2018-02-22T14:24:23.121Z,97870.78
2018-02-22T14:26:50.802Z,97878.56
2018-02-22T14:29:18.596Z,97869.04
2018-02-22T14:31:46.840Z,97870.11
2018-02-22T14:34:14.750Z,97878.01
2018-02-22T14:36:42.621Z,97868.27
2018-02-22T14:39:10.315Z,97861.64
2018-02-22T14:41:37.929Z,97862.62
2018-02-22T14:44:05.752Z,97869.95
2018-02-22T14:46:33.410Z,97866.09
2018-02-22T14:49:01.086Z,97870.91
2018-02-22T14:51:28.997Z,97854.83
2018-02-22T14:53:56.740Z,97857.96
2018-02-22T14:56:24.670Z,97860.74
2018-02-22T14:58:53.199Z,97863.43
2018-02-22T15:01:20.893Z,97860.81
2018-02-22T15:03:48.589Z,97867.03
2018-02-22T15:06:16.430Z,97860.14
2018-02-22T15:08:43.966Z,97865.55
2018-02-22T15:11:11.916Z,97858.55
2018-02-22T15:13:39.701Z,97867.50
2018-02-22T15:16:07.387Z,97868.44
2018-02-22T15:18:36.795Z,97873.80
2018-02-22T15:21:04.408Z,97865.58
2018-02-22T15:23:32.110Z,97872.39
2018-02-22T15:26:00.091Z,97877.88
2018-02-22T15:28:27.812Z,97878.21
2018-02-22T15:30:55.790Z,97880.27
2018-02-22T15:33:23.461Z,97874.17
2018-02-22T15:35:51.264Z,97877.73
2018-02-22T15:38:18.862Z,97885.88
2018-02-22T15:40:47.221Z,97890.88
2018-02-22T15:43:14.776Z,97877.13
2018-02-22T15:45:42.536Z,97876.38
2018-02-22T15:48:10.272Z,97888.89
2018-02-22T15:50:38.448Z,97891.30
2018-02-22T15:53:06.221Z,97893.11
2018-02-22T15:55:34.040Z,97886.56
2018-02-22T15:58:02.297Z,97890.25
2018-02-22T16:00:29.999Z,97887.61
2018-02-22T16:02:57.702Z,97892.61
2018-02-22T16:05:25.274Z,97900.53
2018-02-22T16:07:52.837Z,97894.05
2018-02-22T16:10:20.432Z,97887.45
2018-02-22T16:12:48.059Z,97893.81
2018-02-22T16:15:15.848Z,97897.42
2018-02-22T16:17:43.487Z,97890.93
2018-02-22T16:20:11.127Z,97898.86
2018-02-22T16:22:39.113Z,97903.95
2018-02-22T16:25:06.707Z,97894.71
2018-02-22T16:27:34.428Z,97895.96
2018-02-22T16:30:02.132Z,97897.24
2018-02-22T16:32:29.873Z,97905.28
2018-02-22T16:34:57.833Z,97891.14
2018-02-22T16:37:25.668Z,97896.41
2018-02-22T16:39:53.516Z,97896.97
2018-02-22T16:42:21.766Z,97899.47
2018-02-22T16:44:49.408Z,97901.12
2018-02-22T16:47:16.985Z,97894.18
2018-02-22T16:49:44.715Z,97897.76
2018-02-22T16:52:12.498Z,97903.59
2018-02-22T16:54:40.042Z,97908.55
2018-02-22T16:57:07.908Z,97910.14
2018-02-22T16:59:35.486Z,97921.00
2018-02-22T17:02:03.444Z,97912.70
2018-02-22T17:04:31.218Z,97919.58
2018-02-22T17:06:59.446Z,97920.59
2018-02-22T17:09:27.372Z,97915.39
2018-02-22T17:11:55.025Z,97921.78
2018-02-22T17:14:22.616Z,97930.08
2018-02-22T17:16:50.414Z,97928.73
2018-02-22T17:19:18.245Z,97928.86
2018-02-22T17:21:45.891Z,97929.00
2018-02-22T17:24:13.588Z,97918.95
2018-02-22T17:26:46.861Z,97922.81
2018-02-22T17:29:20.091Z,97938.72
2018-02-22T17:31:53.486Z,97932.98
2018-02-22T17:34:21.436Z,97937.45
2018-02-22T17:39:54.782Z,97946.25
2018-02-22T17:42:22.526Z,97945.44
2018-02-22T17:44:50.278Z,97937.75
2018-02-22T17:47:18.967Z,97943.55
2018-02-22T17:49:46.766Z,97948.87
2018-02-22T17:52:15.353Z,97942.16
2018-02-22T17:54:43.106Z,97949.44
2018-02-22T17:57:10.957Z,97944.05
2018-02-22T17:59:38.777Z,97946.19
2018-02-22T18:02:07.153Z,97948.80
2018-02-22T18:04:35.408Z,97946.00
2018-02-22T18:07:03.017Z,97950.91
2018-02-22T18:09:30.839Z,97947.27
2018-02-22T18:11:58.921Z,97950.20
2018-02-22T18:14:26.721Z,97951.78
2018-02-22T18:16:54.480Z,97948.39
2018-02-22T18:19:22.418Z,97953.63
2018-02-22T18:21:50.002Z,97953.05
2018-02-22T18:24:17.634Z,97948.30
2018-02-22T18:26:46.281Z,97953.41
2018-02-22T18:29:14.099Z,97954.28
2018-02-22T18:31:42.016Z,97955.81
2018-02-22T18:34:09.802Z,97955.48
2018-02-22T18:36:37.467Z,97953.27
2018-02-22T18:39:11.457Z,97947.98
2018-02-22T18:41:45.526Z,97952.45
2018-02-22T18:44:18.756Z,97951.32
2018-02-22T18:46:46.426Z,97951.62
2018-02-22T18:49:14.055Z,97949.89
2018-02-22T18:51:41.940Z,97952.09
2018-02-22T18:54:09.572Z,97953.93
2018-02-22T18:56:37.976Z,97954.08
2018-02-22T18:59:05.644Z,97949.83
2018-02-22T19:01:33.458Z,97957.16
2018-02-22T19:04:01.687Z,97950.55
2018-02-22T19:06:29.837Z,97952.74
2018-02-22T19:08:57.654Z,97947.79
2018-02-22T19:11:25.282Z,97949.52
2018-02-22T19:13:53.085Z,97946.80
2018-02-22T19:16:20.791Z,97955.97
2018-02-22T19:18:48.610Z,97946.05
2018-02-22T19:21:17.100Z,97940.36
2018-02-22T19:23:45.443Z,97947.31
2018-02-22T19:26:13.102Z,97944.67
2018-02-22T19:28:40.722Z,97944.70
2018-02-22T19:31:08.473Z,97942.77
2018-02-22T19:33:36.098Z,97942.01
2018-02-22T19:36:03.782Z,97937.02
2018-02-22T19:38:31.491Z,97942.41
2018-02-22T19:40:59.562Z,97945.72
2018-02-22T19:43:27.254Z,97945.22
2018-02-22T19:45:54.877Z,97946.74
2018-02-22T19:48:22.716Z,97941.28
2018-02-22T19:50:50.366Z,97946.80
2018-02-22T19:53:18.017Z,97944.91
2018-02-22T19:55:46.003Z,97944.70
2018-02-22T19:58:13.693Z,97944.87
2018-02-22T20:00:41.475Z,97940.59
2018-02-22T20:03:09.113Z,97943.18
2018-02-22T20:05:36.972Z,97941.08
2018-02-22T20:08:04.754Z,97944.89
2018-02-22T20:10:32.570Z,97938.05
2018-02-22T20:13:00.186Z,97938.59
2018-02-22T20:15:27.960Z,97940.70
2018-02-22T20:17:55.615Z,97943.41
2018-02-22T20:20:23.183Z,97942.18
2018-02-22T20:22:51.051Z,97940.95
2018-02-22T20:25:18.876Z,97947.10
2018-02-22T20:27:46.737Z,97942.75
2018-02-22T20:30:15.204Z,97943.41
2018-02-22T20:32:43.522Z,97954.34
2018-02-22T20:35:11.300Z,97944.89
2018-02-22T20:37:38.932Z,97945.51
2018-02-22T20:40:06.777Z,97948.08
2018-02-22T20:42:34.495Z,97946.70
2018-02-22T20:45:02.425Z,97947.77
2018-02-22T20:47:30.704Z,97944.77
2018-02-22T20:49:58.421Z,97942.73
2018-02-22T20:52:27.690Z,97947.12
2018-02-22T20:57:58.939Z,97943.69
2018-02-22T21:00:26.771Z,97947.41
2018-02-22T21:02:54.541Z,97946.30
2018-02-22T21:05:22.413Z,97937.20
2018-02-22T21:07:49.951Z,97936.63
2018-02-22T21:10:17.952Z,97945.02
2018-02-22T21:12:46.008Z,97944.66
2018-02-22T21:15:13.872Z,97946.95
2018-02-22T21:17:41.647Z,97942.30
2018-02-22T21:20:10.490Z,97951.94
2018-02-22T21:22:38.882Z,97942.20
2018-02-22T21:25:06.803Z,97944.58
2018-02-22T21:27:34.647Z,97938.94
2018-02-22T21:30:02.283Z,97937.17
2018-02-22T21:32:30.043Z,97953.53
2018-02-22T21:34:57.842Z,97952.48
2018-02-22T21:37:25.733Z,97960.92
2018-02-22T21:39:53.791Z,97959.02
2018-02-22T21:42:21.361Z,97961.89
2018-02-22T21:44:49.291Z,97955.87
2018-02-22T21:47:17.385Z,97963.88
2018-02-22T21:49:44.967Z,97965.06
2018-02-22T21:52:12.761Z,97971.63
2018-02-22T21:54:40.442Z,97969.41
2018-02-22T21:57:08.152Z,97971.91
2018-02-22T21:59:35.965Z,97974.32
2018-02-22T22:02:03.620Z,97981.02
2018-02-22T22:04:31.181Z,97980.99
2018-02-22T22:06:58.710Z,97974.86
2018-02-22T22:09:26.315Z,97977.25
2018-02-22T22:11:54.097Z,97974.27
2018-02-22T22:14:21.678Z,97975.92
2018-02-22T22:16:49.480Z,97980.18
2018-02-22T22:19:17.479Z,97984.41
2018-02-22T22:21:45.326Z,97972.39
2018-02-22T22:24:13.197Z,97973.19
2018-02-22T22:26:41.050Z,97971.34
2018-02-22T22:29:08.877Z,97968.41
2018-02-22T22:31:36.718Z,97961.62
2018-02-22T22:34:04.319Z,97964.72
2018-02-22T22:36:32.291Z,97958.28
2018-02-22T22:39:00.007Z,97960.83
2018-02-22T22:41:27.891Z,97962.81
2018-02-22T22:43:55.533Z,97959.70
2018-02-22T22:46:23.076Z,97961.73
2018-02-22T22:48:51.906Z,97953.56
2018-02-22T22:51:19.551Z,97952.28
2018-02-22T22:53:47.161Z,97960.08
2018-02-22T22:56:14.837Z,97956.73
2018-02-22T22:58:42.596Z,97957.98
2018-02-22T23:01:10.271Z,97951.42
2018-02-22T23:03:37.887Z,97953.66
2018-02-22T23:06:05.676Z,97945.67
2018-02-22T23:08:33.261Z,97949.27
2018-02-22T23:11:00.919Z,97942.46
2018-02-22T23:13:28.596Z,97949.89
2018-02-22T23:15:56.191Z,97947.05
2018-02-22T23:18:24.212Z,97941.87
2018-02-22T23:20:51.862Z,97953.40
2018-02-22T23:23:19.425Z,97950.25
2018-02-22T23:25:46.972Z,97947.68
2018-02-22T23:28:14.531Z,97948.19
2018-02-22T23:30:42.364Z,97950.32
2018-02-22T23:33:09.898Z,97947.50
2018-02-22T23:35:37.478Z,97949.49
2018-02-22T23:38:05.735Z,97946.84
2018-02-22T23:40:38.109Z,97943.52
2018-02-22T23:43:06.129Z,97949.05
2018-02-22T23:45:34.626Z,97941.91
2018-02-22T23:48:02.556Z,97950.71
2018-02-22T23:50:30.138Z,97939.36
2018-02-22T23:52:57.752Z,97943.73
2018-02-22T23:55:25.427Z,97942.53
2018-02-22T23:57:53.178Z,97936.58
